createdAt,value
2022-10-23T00:00:34.052Z,99974.02
2022-10-23T00:01:39.331Z,99971.39
2022-10-23T00:02:41.815Z,99967.20
2022-10-23T00:03:44.768Z,99973.31
2022-10-23T00:04:52.098Z,99967.13
2022-10-23T00:05:54.134Z,99964.50
2022-10-23T00:06:56.335Z,99960.65
2022-10-23T00:07:59.660Z,99963.22
2022-10-23T00:09:06.232Z,99965.84
2022-10-23T00:10:09.892Z,99963.15
2022-10-23T00:11:14.385Z,99966.48
2022-10-23T00:12:18.624Z,99964.66
2022-10-23T00:13:20.550Z,99958.52
2022-10-23T00:14:24.231Z,99964.66
2022-10-23T00:15:26.514Z,99968.21
2022-10-23T00:16:29.107Z,99966.35
2022-10-23T00:17:31.165Z,99963.72
2022-10-23T00:18:33.761Z,99963.58
2022-10-23T00:19:35.670Z,99964.42
2022-10-23T00:20:38.081Z,99967.94
2022-10-23T00:21:40.211Z,99963.37
2022-10-23T00:22:42.356Z,99964.21
2022-10-23T00:23:45.339Z,99962.38
2022-10-23T00:24:47.296Z,99967.52
2022-10-23T00:25:49.979Z,99961.30
2022-10-23T00:26:52.210Z,99962.95
2022-10-23T00:27:54.146Z,99962.08
2022-10-23T00:28:56.394Z,99964.64
2022-10-23T00:29:58.667Z,99963.80
2022-10-23T00:31:02.173Z,99962.87
2022-10-23T00:32:04.236Z,99962.87
2022-10-23T00:33:06.223Z,99962.87
2022-10-23T00:34:08.285Z,99963.66
2022-10-23T00:35:10.601Z,99963.72
2022-10-23T00:36:18.111Z,99963.80
2022-10-23T00:37:20.448Z,99958.45
2022-10-23T00:38:22.651Z,99957.54
2022-10-23T00:39:24.789Z,99963.72
2022-10-23T00:40:28.044Z,99954.03
2022-10-23T00:41:30.365Z,99950.55
2022-10-23T00:42:32.415Z,99965.45
2022-10-23T00:43:35.576Z,99951.25
2022-10-23T00:44:41.241Z,99956.52
2022-10-23T00:45:43.183Z,99952.05
2022-10-23T00:46:45.855Z,99952.05
2022-10-23T00:48:59.131Z,99962.06
2022-10-23T00:50:01.726Z,99957.54
2022-10-23T00:51:03.931Z,99955.11
2022-10-23T00:52:09.130Z,99956.66
2022-10-23T00:53:12.956Z,99948.75
2022-10-23T00:54:25.443Z,99949.56
2022-10-23T00:55:23.184Z,99950.41
2022-10-23T00:56:26.091Z,99952.12
2022-10-23T00:58:30.223Z,99947.41
2022-10-23T00:59:33.166Z,99950.97
2022-10-23T01:00:48.212Z,99940.56
2022-10-23T01:01:50.480Z,99941.44
2022-10-23T01:02:54.113Z,99940.70
2022-10-23T01:03:56.215Z,99943.27
2022-10-23T01:04:58.588Z,99938.73
2022-10-23T01:06:16.714Z,99939.50
2022-10-23T01:07:24.936Z,99939.94
2022-10-23T01:08:33.758Z,99935.84
2022-10-23T01:09:45.471Z,99936.09
2022-10-23T01:10:51.446Z,99933.46
2022-10-23T01:12:00.327Z,99935.30
2022-10-23T01:13:08.869Z,99933.53
2022-10-23T01:15:36.607Z,99926.33
2022-10-23T01:16:45.348Z,99928.62
2022-10-23T01:17:57.091Z,99925.77
2022-10-23T01:19:02.855Z,99918.84
2022-10-23T01:20:08.813Z,99923.42
2022-10-23T01:21:20.674Z,99928.62
2022-10-23T01:24:09.681Z,99918.28
2022-10-23T01:25:36.521Z,99912.66
2022-10-23T01:27:16.374Z,99916.22
2022-10-23T01:29:38.966Z,99915.64
2022-10-23T01:30:44.049Z,99913.66
2022-10-23T01:32:05.045Z,99912.73
2022-10-23T01:33:16.785Z,99910.88
2022-10-23T01:34:22.571Z,99905.67
2022-10-23T01:35:31.084Z,99903.66
2022-10-23T01:36:35.917Z,99908.30
2022-10-23T01:39:01.231Z,99904.29
2022-10-23T01:40:07.358Z,99901.31
2022-10-23T01:42:35.094Z,99900.81
2022-10-23T01:43:46.823Z,99909.22
2022-10-23T01:44:55.446Z,99897.84
2022-10-23T01:46:01.132Z,99900.69
2022-10-23T01:47:06.395Z,99898.83
2022-10-23T01:48:12.073Z,99896.99
2022-10-23T01:49:16.587Z,99897.21
2022-10-23T01:50:21.356Z,99891.72
2022-10-23T01:51:26.541Z,99891.87
2022-10-23T01:52:28.924Z,99894.36
2022-10-23T01:53:34.900Z,99893.55
2022-10-23T01:54:40.322Z,99894.22
2022-10-23T01:55:43.482Z,99894.43
2022-10-23T01:56:49.251Z,99892.56
2022-10-23T01:57:53.258Z,99893.41
2022-10-23T01:58:57.693Z,99886.74
2022-10-23T02:00:03.374Z,99890.15
2022-10-23T02:01:07.114Z,99890.15
2022-10-23T02:02:12.791Z,99892.64
2022-10-23T02:03:17.117Z,99888.21
2022-10-23T02:04:22.888Z,99884.66
2022-10-23T02:05:27.881Z,99893.41
2022-10-23T02:06:30.222Z,99879.46
2022-10-23T02:07:32.840Z,99891.44
2022-10-23T02:08:35.150Z,99888.45
2022-10-23T02:09:37.411Z,99897.06
2022-10-23T02:10:43.246Z,99888.28
2022-10-23T02:13:13.687Z,99887.08
2022-10-23T02:15:37.790Z,99891.11
2022-10-23T02:16:51.990Z,99891.72
2022-10-23T02:18:03.550Z,99882.02
2022-10-23T02:19:24.512Z,99889.09
2022-10-23T02:20:48.844Z,99878.47
2022-10-23T02:22:15.900Z,99886.45
2022-10-23T02:23:30.899Z,99889.86
2022-10-23T02:24:36.791Z,99884.59
2022-10-23T02:25:42.511Z,99881.95
2022-10-23T02:26:57.513Z,99888.00
2022-10-23T02:28:03.237Z,99880.09
2022-10-23T02:29:11.711Z,99878.47
2022-10-23T02:30:16.512Z,99886.31
2022-10-23T02:31:21.533Z,99889.09
2022-10-23T02:32:27.240Z,99888.14
2022-10-23T02:33:30.292Z,99887.66
2022-10-23T02:34:32.616Z,99887.80
2022-10-23T02:35:35.272Z,99885.45
2022-10-23T02:36:38.462Z,99879.97
2022-10-23T02:37:40.726Z,99878.84
2022-10-23T02:38:44.835Z,99884.88
2022-10-23T02:39:47.434Z,99877.92
2022-10-23T02:40:50.431Z,99878.77
2022-10-23T02:41:59.217Z,99877.67
2022-10-23T02:43:07.823Z,99880.30
2022-10-23T02:44:31.952Z,99882.09
2022-10-23T02:45:46.891Z,99875.21
2022-10-23T02:47:26.452Z,99870.64
2022-10-23T02:48:35.312Z,99864.81
2022-10-23T02:49:49.881Z,99866.36
2022-10-23T02:51:02.314Z,99875.91
2022-10-23T02:52:24.686Z,99875.91
2022-10-23T02:53:33.309Z,99873.27
2022-10-23T02:54:47.825Z,99872.47
2022-10-23T02:55:59.321Z,99816.05
2022-10-23T02:57:07.824Z,99868.92
2022-10-23T02:58:25.409Z,99870.86
2022-10-23T02:59:36.852Z,99877.05
2022-10-23T03:00:42.667Z,99871.08
2022-10-23T03:01:55.104Z,99874.05
2022-10-23T03:04:10.794Z,99870.64
2022-10-23T03:05:16.479Z,99875.50
2022-10-23T03:06:19.834Z,99874.19
2022-10-23T03:07:22.002Z,99874.34
2022-10-23T03:08:24.472Z,99884.95
2022-10-23T03:09:26.992Z,99883.19
2022-10-23T03:10:28.963Z,99884.88
2022-10-23T03:11:31.031Z,99877.59
2022-10-23T03:12:32.909Z,99882.31
2022-10-23T03:13:34.894Z,99880.70
2022-10-23T03:14:37.195Z,99885.16
2022-10-23T03:15:39.071Z,99889.66
2022-10-23T03:16:41.079Z,99883.48
2022-10-23T03:17:43.444Z,99885.30
2022-10-23T03:18:45.449Z,99888.45
2022-10-23T03:19:47.367Z,99884.88
2022-10-23T03:20:49.687Z,99884.03
2022-10-23T03:21:51.576Z,99878.69
2022-10-23T03:22:53.464Z,99879.97
2022-10-23T03:23:55.521Z,99881.61
2022-10-23T03:24:57.403Z,99884.11
2022-10-23T03:26:00.106Z,99884.11
2022-10-23T03:27:02.218Z,99885.75
2022-10-23T03:28:04.095Z,99881.33
2022-10-23T03:29:06.372Z,99881.61
2022-10-23T03:30:10.006Z,99889.30
2022-10-23T03:31:11.899Z,99877.05
2022-10-23T03:32:13.818Z,99884.17
2022-10-23T03:33:15.816Z,99878.20
2022-10-23T03:34:17.710Z,99878.20
2022-10-23T03:35:19.577Z,99882.45
2022-10-23T03:36:21.646Z,99878.06
2022-10-23T03:37:23.751Z,99879.67
2022-10-23T03:38:25.743Z,99879.89
2022-10-23T03:39:27.930Z,99880.55
2022-10-23T03:40:30.117Z,99875.11
2022-10-23T03:41:32.206Z,99881.18
2022-10-23T03:42:34.307Z,99874.05
2022-10-23T03:43:36.379Z,99877.45
2022-10-23T03:44:38.267Z,99868.62
2022-10-23T03:45:40.373Z,99871.27
2022-10-23T03:46:42.352Z,99873.61
2022-10-23T03:47:44.645Z,99862.44
2022-10-23T03:48:46.770Z,99863.36
2022-10-23T03:49:48.652Z,99867.20
2022-10-23T03:50:51.107Z,99866.91
2022-10-23T03:51:53.315Z,99864.34
2022-10-23T03:52:55.797Z,99866.77
2022-10-23T03:53:58.681Z,99866.77
2022-10-23T03:55:01.155Z,99873.34
2022-10-23T03:56:04.508Z,99870.02
2022-10-23T03:57:06.400Z,99867.52
2022-10-23T03:58:08.269Z,99870.93
2022-10-23T03:59:10.170Z,99863.58
2022-10-23T04:00:14.166Z,99868.92
2022-10-23T04:01:16.431Z,99867.05
2022-10-23T04:02:18.715Z,99859.08
2022-10-23T04:03:20.794Z,99856.59
2022-10-23T04:04:22.812Z,99853.81
2022-10-23T04:05:24.711Z,99856.37
2022-10-23T04:06:26.749Z,99852.96
2022-10-23T04:07:28.816Z,99857.17
2022-10-23T04:08:30.692Z,99860.50
2022-10-23T04:09:32.693Z,99856.22
2022-10-23T04:10:34.687Z,99847.55
2022-10-23T04:11:36.886Z,99852.19
2022-10-23T04:12:38.778Z,99852.05
2022-10-23T04:13:40.654Z,99858.09
2022-10-23T04:14:43.129Z,99860.02
2022-10-23T04:15:52.920Z,99853.81
2022-10-23T04:16:55.030Z,99847.69
2022-10-23T04:17:56.910Z,99847.69
2022-10-23T04:18:58.995Z,99845.05
2022-10-23T04:20:01.403Z,99856.92
2022-10-23T04:21:03.584Z,99852.16
2022-10-23T04:22:05.834Z,99848.94
2022-10-23T04:23:08.156Z,99849.96
2022-10-23T04:24:10.427Z,99847.80
2022-10-23T04:25:12.507Z,99844.54
2022-10-23T04:26:14.592Z,99852.38
2022-10-23T04:27:16.490Z,99849.81
2022-10-23T04:28:18.664Z,99842.75
2022-10-23T04:29:25.729Z,99845.39
2022-10-23T04:30:30.937Z,99847.25
2022-10-23T04:31:35.500Z,99849.12
2022-10-23T04:32:37.398Z,99841.69
2022-10-23T04:33:47.572Z,99840.80
2022-10-23T04:36:32.958Z,99843.30
2022-10-23T04:37:35.962Z,99848.02
2022-10-23T04:38:37.897Z,99844.61
2022-10-23T04:39:39.821Z,99844.54
2022-10-23T04:40:45.902Z,99847.10
2022-10-23T04:41:51.125Z,99843.37
2022-10-23T04:44:09.118Z,99842.92
2022-10-23T04:45:27.930Z,99848.64
2022-10-23T04:46:22.486Z,99848.49
2022-10-23T04:48:54.380Z,99846.80
2022-10-23T04:49:57.801Z,99845.93
2022-10-23T04:51:03.917Z,99852.92
2022-10-23T04:52:06.030Z,99848.72
2022-10-23T04:53:08.734Z,99852.08
2022-10-23T04:54:10.613Z,99852.23
2022-10-23T04:55:12.896Z,99844.24
2022-10-23T04:56:15.089Z,99850.21
2022-10-23T04:57:17.082Z,99846.63
2022-10-23T04:58:19.056Z,99846.88
2022-10-23T04:59:21.323Z,99844.94
2022-10-23T05:00:23.615Z,99843.84
2022-10-23T05:01:25.713Z,99842.00
2022-10-23T05:02:27.712Z,99842.08
2022-10-23T05:03:29.717Z,99837.80
2022-10-23T05:04:32.056Z,99846.47
2022-10-23T05:05:33.939Z,99842.92
2022-10-23T05:06:36.232Z,99844.72
2022-10-23T05:07:38.233Z,99842.92
2022-10-23T05:08:40.173Z,99842.92
2022-10-23T05:09:42.359Z,99839.37
2022-10-23T05:10:44.605Z,99846.33
2022-10-23T05:11:46.584Z,99833.94
2022-10-23T05:12:48.467Z,99836.50
2022-10-23T05:13:50.694Z,99850.75
2022-10-23T05:14:53.509Z,99846.47
2022-10-23T05:15:58.002Z,99844.79
2022-10-23T05:17:07.009Z,99849.98
2022-10-23T05:18:12.683Z,99847.50
2022-10-23T05:19:24.817Z,99848.34
2022-10-23T05:20:30.596Z,99847.42
2022-10-23T05:21:35.094Z,99849.04
2022-10-23T05:22:40.153Z,99847.34
2022-10-23T05:23:44.775Z,99849.26
2022-10-23T05:24:50.472Z,99843.77
2022-10-23T05:25:51.988Z,99851.59
2022-10-23T05:26:54.059Z,99854.31
2022-10-23T05:27:56.627Z,99842.77
2022-10-23T05:29:00.053Z,99856.03
2022-10-23T05:30:03.560Z,99850.75
2022-10-23T05:31:06.234Z,99846.17
2022-10-23T05:32:10.307Z,99856.58
2022-10-23T05:33:13.097Z,99853.16
2022-10-23T05:34:17.933Z,99852.33
2022-10-23T05:35:22.583Z,99851.98
2022-10-23T05:36:25.606Z,99849.69
2022-10-23T05:37:28.226Z,99852.33
2022-10-23T05:38:33.935Z,99853.31
2022-10-23T05:39:36.255Z,99850.68
2022-10-23T05:41:41.269Z,99851.67
2022-10-23T05:42:43.906Z,99852.55
2022-10-23T05:43:46.309Z,99851.59
2022-10-23T05:44:48.448Z,99848.05
2022-10-23T05:45:50.316Z,99851.59
2022-10-23T05:46:52.522Z,99858.59
2022-10-23T05:47:56.550Z,99850.61
2022-10-23T05:50:01.302Z,99855.03
2022-10-23T05:51:08.706Z,99856.80
2022-10-23T05:52:11.759Z,99849.91
2022-10-23T05:53:15.611Z,99854.09
2022-10-23T05:54:17.762Z,99850.53
2022-10-23T05:55:19.984Z,99851.45
2022-10-23T05:56:22.152Z,99848.73
2022-10-23T05:57:24.044Z,99854.63
2022-10-23T05:58:26.253Z,99851.91
2022-10-23T05:59:28.212Z,99844.16
2022-10-23T06:00:31.462Z,99847.59
2022-10-23T06:01:33.656Z,99848.51
2022-10-23T06:02:35.837Z,99851.84
2022-10-23T06:03:39.193Z,99847.44
2022-10-23T06:04:41.110Z,99845.42
2022-10-23T06:05:51.598Z,99851.61
2022-10-23T06:06:54.035Z,99847.29
2022-10-23T06:08:00.579Z,99849.13
2022-10-23T06:09:03.992Z,99844.58
2022-10-23T06:10:08.398Z,99847.10
2022-10-23T06:11:13.262Z,99847.59
2022-10-23T06:12:15.484Z,99845.27
2022-10-23T06:13:17.422Z,99856.66
2022-10-23T06:14:19.411Z,99853.18
2022-10-23T06:15:21.304Z,99849.44
2022-10-23T06:16:24.187Z,99853.18
2022-10-23T06:17:27.813Z,99849.44
2022-10-23T06:18:29.709Z,99856.13
2022-10-23T06:19:33.010Z,99853.64
2022-10-23T06:20:36.555Z,99855.36
2022-10-23T06:21:39.677Z,99840.14
2022-10-23T06:22:42.094Z,99856.13
2022-10-23T06:23:45.663Z,99860.45
2022-10-23T06:24:47.753Z,99860.63
2022-10-23T06:25:51.186Z,99856.27
2022-10-23T06:26:53.309Z,99856.89
2022-10-23T06:27:55.198Z,99856.20
2022-10-23T06:28:57.559Z,99862.31
2022-10-23T06:29:59.484Z,99850.69
2022-10-23T06:31:07.042Z,99854.17
2022-10-23T06:32:09.170Z,99848.66
2022-10-23T06:33:11.057Z,99853.17
2022-10-23T06:34:14.024Z,99853.33
2022-10-23T06:35:16.340Z,99846.03
2022-10-23T06:36:18.884Z,99849.59
2022-10-23T06:37:20.838Z,99848.82
2022-10-23T06:38:23.052Z,99850.30
2022-10-23T06:39:27.364Z,99849.27
2022-10-23T06:40:30.043Z,99841.89
2022-10-23T06:41:33.011Z,99839.02
2022-10-23T06:42:35.030Z,99843.38
2022-10-23T06:43:38.624Z,99833.97
2022-10-23T06:44:40.731Z,99803.20
2022-10-23T06:45:42.645Z,99841.05
2022-10-23T06:46:44.672Z,99841.97
2022-10-23T06:47:51.776Z,99829.88
2022-10-23T06:48:53.708Z,99846.17
2022-10-23T06:49:55.643Z,99838.41
2022-10-23T06:50:58.755Z,99844.45
2022-10-23T06:52:00.685Z,99837.33
2022-10-23T06:53:03.212Z,99845.56
2022-10-23T06:54:05.266Z,99835.84
2022-10-23T06:55:08.374Z,99840.13
2022-10-23T06:56:11.797Z,99847.24
2022-10-23T06:57:13.909Z,99842.84
2022-10-23T06:58:15.832Z,99837.33
2022-10-23T06:59:18.028Z,99839.63
2022-10-23T07:00:20.571Z,99835.61
2022-10-23T07:01:22.661Z,99836.30
2022-10-23T07:02:24.794Z,99840.57
2022-10-23T07:03:27.232Z,99843.05
2022-10-23T07:04:29.465Z,99841.17
2022-10-23T07:05:32.176Z,99841.17
2022-10-23T07:06:34.282Z,99838.38
2022-10-23T07:07:36.493Z,99842.73
2022-10-23T07:08:38.746Z,99838.22
2022-10-23T07:09:40.938Z,99835.73
2022-10-23T07:10:43.326Z,99836.34
2022-10-23T07:11:45.393Z,99847.50
2022-10-23T07:12:47.601Z,99834.22
2022-10-23T07:13:49.845Z,99850.75
2022-10-23T07:14:51.914Z,99841.94
2022-10-23T07:15:54.257Z,99847.34
2022-10-23T07:16:56.412Z,99844.86
2022-10-23T07:17:58.470Z,99843.02
2022-10-23T07:19:00.641Z,99846.50
2022-10-23T07:20:03.695Z,99850.75
2022-10-23T07:21:06.305Z,99852.50
2022-10-23T07:22:10.737Z,99852.41
2022-10-23T07:23:12.740Z,99858.54
2022-10-23T07:24:14.981Z,99847.98
2022-10-23T07:25:17.610Z,99848.94
2022-10-23T07:26:19.805Z,99849.70
2022-10-23T07:27:22.055Z,99847.05
2022-10-23T07:28:24.324Z,99841.77
2022-10-23T07:29:26.781Z,99844.33
2022-10-23T07:30:28.974Z,99848.77
2022-10-23T07:31:31.156Z,99843.48
2022-10-23T07:32:33.450Z,99849.53
2022-10-23T07:33:36.399Z,99841.77
2022-10-23T07:34:38.574Z,99841.77
2022-10-23T07:35:41.054Z,99845.34
2022-10-23T07:36:43.366Z,99836.49
2022-10-23T07:37:45.867Z,99840.77
2022-10-23T07:38:49.438Z,99851.25
2022-10-23T07:39:51.517Z,99853.73
2022-10-23T07:40:56.510Z,99849.61
2022-10-23T07:41:58.722Z,99843.17
2022-10-23T07:43:03.759Z,99843.17
2022-10-23T07:44:06.013Z,99838.05
2022-10-23T07:46:20.246Z,99835.52
2022-10-23T07:47:22.425Z,99843.33
2022-10-23T07:48:24.582Z,99844.09
2022-10-23T07:49:26.639Z,99837.89
2022-10-23T07:50:29.003Z,99836.17
2022-10-23T07:51:31.342Z,99841.61
2022-10-23T07:52:36.029Z,99837.89
2022-10-23T07:53:39.410Z,99842.97
2022-10-23T07:54:43.444Z,99844.61
2022-10-23T07:55:57.858Z,99845.37
2022-10-23T07:57:00.713Z,99840.87
2022-10-23T07:58:02.901Z,99849.20
2022-10-23T07:59:05.079Z,99841.37
2022-10-23T08:01:33.235Z,99841.91
2022-10-23T08:02:36.079Z,99843.36
2022-10-23T08:03:38.317Z,99837.03
2022-10-23T08:04:40.546Z,99841.39
2022-10-23T08:05:42.790Z,99839.59
2022-10-23T08:06:45.023Z,99838.75
2022-10-23T08:07:50.219Z,99838.75
2022-10-23T08:08:52.385Z,99840.27
2022-10-23T08:09:54.512Z,99838.75
2022-10-23T08:10:57.671Z,99839.59
2022-10-23T08:12:03.744Z,99837.88
2022-10-23T08:13:05.786Z,99840.27
2022-10-23T08:14:08.998Z,99842.66
2022-10-23T08:15:11.134Z,99831.25
2022-10-23T08:16:13.646Z,99841.06
2022-10-23T08:17:15.971Z,99836.11
2022-10-23T08:18:19.429Z,99835.86
2022-10-23T08:19:25.958Z,99836.03
2022-10-23T08:20:28.532Z,99833.30
2022-10-23T08:21:31.287Z,99838.42
2022-10-23T08:22:33.679Z,99842.66
2022-10-23T08:23:37.903Z,99840.90
2022-10-23T08:24:40.282Z,99846.77
2022-10-23T08:25:42.685Z,99843.01
2022-10-23T08:26:44.966Z,99842.08
2022-10-23T08:27:50.368Z,99844.72
2022-10-23T08:28:54.350Z,99847.20
2022-10-23T08:29:56.474Z,99846.27
2022-10-23T08:31:00.594Z,99843.34
2022-10-23T08:32:03.138Z,99848.55
2022-10-23T08:33:06.513Z,99850.44
2022-10-23T08:34:09.257Z,99851.44
2022-10-23T12:52:53.268Z,99904.84
2022-10-23T12:53:58.424Z,99913.82
2022-10-23T12:55:04.175Z,99912.60
2022-10-23T12:56:07.105Z,99914.97
2022-10-23T12:57:27.581Z,99914.88
2022-10-23T12:58:34.535Z,99919.11
2022-10-23T12:59:38.420Z,99922.73
2022-10-23T13:00:45.308Z,99912.52
2022-10-23T13:01:52.437Z,99921.67
2022-10-23T13:03:03.679Z,99926.78
2022-10-23T13:04:20.124Z,99925.20
2022-10-23T13:05:26.046Z,99924.52
2022-10-23T13:06:29.053Z,99926.78
2022-10-23T13:07:34.203Z,99925.67
2022-10-23T13:08:43.127Z,99931.63
2022-10-23T13:09:46.634Z,99926.41
2022-10-23T13:10:49.675Z,99930.59
2022-10-23T13:11:52.288Z,99938.55
2022-10-23T13:12:57.548Z,99933.25
2022-10-23T13:13:59.602Z,99929.62
2022-10-23T13:15:11.141Z,99932.87
2022-10-23T13:16:23.352Z,99927.94
2022-10-23T13:17:45.918Z,99927.94
2022-10-23T13:18:49.782Z,99935.80
2022-10-23T13:19:51.878Z,99941.38
2022-10-23T13:20:57.447Z,99939.67
2022-10-23T13:22:00.583Z,99944.12
2022-10-23T13:23:11.815Z,99939.86
2022-10-23T13:24:19.762Z,99940.64
2022-10-23T13:25:33.597Z,99940.64
2022-10-23T13:26:38.881Z,99933.25
2022-10-23T13:27:41.742Z,99937.02
2022-10-23T13:28:45.327Z,99945.94
2022-10-23T13:29:47.619Z,99946.13
2022-10-23T13:31:13.473Z,99947.63
2022-10-23T13:32:24.287Z,99950.27
2022-10-23T13:33:36.018Z,99953.02
2022-10-23T13:34:38.349Z,99953.48
2022-10-23T13:35:40.723Z,99948.00
2022-10-23T13:36:53.267Z,99953.48
2022-10-23T13:37:53.938Z,99955.20
2022-10-23T13:39:11.862Z,99952.45
2022-10-23T13:40:26.490Z,99958.59
2022-10-23T13:41:40.901Z,99958.59
2022-10-23T13:42:43.418Z,99949.80
2022-10-23T13:43:47.672Z,99959.47
2022-10-23T13:44:50.178Z,99962.41
2022-10-23T13:45:52.667Z,99956.81
2022-10-23T13:46:55.961Z,99965.98
2022-10-23T13:47:58.322Z,99965.70
2022-10-23T13:49:00.629Z,99969.59
2022-10-23T13:50:03.308Z,99979.05
2022-10-23T13:51:21.204Z,99981.88
2022-10-23T13:52:23.523Z,99972.99
2022-10-23T13:53:25.788Z,99982.72
2022-10-23T13:55:31.085Z,99982.06
2022-10-23T13:56:33.449Z,99978.38
2022-10-23T13:57:35.395Z,99990.09
2022-10-23T13:58:37.610Z,99972.97
2022-10-23T13:59:40.016Z,99994.55
2022-10-23T14:00:45.622Z,99983.20
2022-10-23T14:01:49.922Z,99985.95
2022-10-23T14:02:52.231Z,99995.67
2022-10-23T14:03:56.200Z,99986.70
2022-10-23T14:04:58.187Z,99993.98
2022-10-23T14:06:00.491Z,99987.54
2022-10-23T14:07:03.242Z,99998.14
2022-10-23T14:08:06.157Z,100001.72
2022-10-23T14:09:12.118Z,100005.12
2022-10-23T14:10:15.148Z,100002.30
2022-10-23T14:11:19.543Z,100002.20
2022-10-23T14:12:21.723Z,100004.45
2022-10-23T14:13:24.173Z,100003.41
2022-10-23T14:14:26.386Z,100010.95
2022-10-23T14:15:28.632Z,100009.06
2022-10-23T14:16:31.445Z,100010.02
2022-10-23T14:17:35.275Z,100009.06
2022-10-23T14:18:37.682Z,100006.53
2022-10-23T14:19:43.264Z,100005.08
2022-10-23T14:20:46.069Z,100012.00
2022-10-23T14:21:48.363Z,100009.02
2022-10-23T14:22:50.476Z,100000.19
2022-10-23T14:23:53.831Z,100010.70
2022-10-23T14:24:56.386Z,100012.59
2022-10-23T14:26:07.411Z,100007.88
2022-10-23T14:27:09.629Z,100010.70
2022-10-23T14:28:11.677Z,100013.78
2022-10-23T14:29:21.259Z,100019.78
2022-10-23T14:30:18.472Z,100016.95
2022-10-23T14:31:21.238Z,100020.80
2022-10-23T14:32:23.615Z,100021.91
2022-10-23T14:33:25.698Z,100024.64
2022-10-23T14:34:27.627Z,100018.99
2022-10-23T14:35:29.880Z,100022.60
2022-10-23T14:36:38.798Z,100025.16
2022-10-23T14:37:36.446Z,100030.37
2022-10-23T14:38:38.869Z,100028.25
2022-10-23T14:39:40.919Z,100032.78
2022-10-23T14:40:43.501Z,100024.84
2022-10-23T14:41:46.803Z,100024.84
2022-10-23T14:42:49.068Z,100032.78
2022-10-23T14:43:54.837Z,100032.78
2022-10-23T14:44:57.354Z,100034.56
2022-10-23T14:46:08.108Z,100037.37
2022-10-23T14:47:13.335Z,100046.02
2022-10-23T14:48:15.941Z,100032.00
2022-10-23T14:49:18.230Z,100047.70
2022-10-23T14:50:20.818Z,100045.06
2022-10-23T14:52:35.722Z,100045.14
2022-10-23T14:53:37.676Z,100045.49
2022-10-23T14:54:39.745Z,100044.48
2022-10-23T14:55:41.841Z,100043.80
2022-10-23T14:56:44.224Z,100042.69
2022-10-23T14:57:46.374Z,100038.85
2022-10-23T14:58:48.913Z,100039.70
2022-10-23T14:59:51.283Z,100049.53
2022-10-23T15:00:58.537Z,100051.92
2022-10-23T15:02:00.859Z,100044.81
2022-10-23T15:03:03.204Z,100056.16
2022-10-23T15:04:06.922Z,100049.02
2022-10-23T15:05:09.358Z,100051.74
2022-10-23T15:06:16.042Z,100052.59
2022-10-23T15:07:21.799Z,100055.91
2022-10-23T15:08:24.540Z,100052.09
2022-10-23T15:09:27.093Z,100058.81
2022-10-23T15:10:29.844Z,100060.78
2022-10-23T15:11:32.563Z,100063.17
2022-10-23T15:12:36.388Z,100059.60
2022-10-23T15:13:38.869Z,100055.66
2022-10-23T15:14:41.956Z,100051.25
2022-10-23T15:15:44.615Z,100049.19
2022-10-23T15:16:47.487Z,100049.19
2022-10-23T15:17:49.758Z,100052.59
2022-10-23T15:18:53.604Z,100067.72
2022-10-23T15:19:55.956Z,100053.52
2022-10-23T15:20:59.202Z,100056.95
2022-10-23T15:22:01.782Z,100059.43
2022-10-23T15:23:04.852Z,100058.64
2022-10-23T15:24:07.161Z,100064.81
2022-10-23T15:25:11.279Z,100062.42
2022-10-23T15:26:16.951Z,100064.11
2022-10-23T15:27:20.543Z,100071.13
2022-10-23T15:28:23.627Z,100066.84
2022-10-23T15:29:25.999Z,100069.40
2022-10-23T15:30:29.692Z,100066.58
2022-10-23T15:31:39.209Z,100066.67
2022-10-23T15:32:41.768Z,100067.55
2022-10-23T15:33:44.860Z,100076.58
2022-10-23T15:34:48.061Z,100082.72
2022-10-23T15:35:51.665Z,100070.28
2022-10-23T15:36:56.189Z,100077.17
2022-10-23T15:37:59.821Z,100075.48
2022-10-23T15:39:09.031Z,100082.55
2022-10-23T15:40:12.409Z,100081.54
2022-10-23T15:41:18.335Z,100079.65
2022-10-23T15:42:20.818Z,100079.65
2022-10-23T15:43:22.979Z,100085.91
2022-10-23T15:44:27.778Z,100080.70
2022-10-23T15:45:31.524Z,100087.77
2022-10-23T15:46:34.214Z,100089.65
2022-10-23T15:47:36.154Z,100084.27
2022-10-23T15:48:38.398Z,100090.58
2022-10-23T15:49:40.990Z,100087.67
2022-10-23T15:50:43.338Z,100092.30
2022-10-23T15:51:46.242Z,100086.08
2022-10-23T15:52:48.635Z,100086.83
2022-10-23T15:53:51.126Z,100076.24
2022-10-23T15:54:53.413Z,100088.55
2022-10-23T15:55:55.611Z,100087.59
2022-10-23T15:56:58.038Z,100086.66
2022-10-23T15:58:00.505Z,100093.05
2022-10-23T15:59:02.694Z,100088.72
2022-10-23T16:00:07.758Z,100085.48
2022-10-23T16:01:10.433Z,100089.23
2022-10-23T16:02:12.967Z,100095.20
2022-10-23T16:03:15.433Z,100090.78
2022-10-23T16:04:18.133Z,100093.67
2022-10-23T16:05:20.607Z,100094.36
2022-10-23T16:06:22.958Z,100088.13
2022-10-23T16:07:25.589Z,100092.63
2022-10-23T16:08:28.046Z,100094.19
2022-10-23T16:09:30.121Z,100097.77
2022-10-23T16:10:32.829Z,100089.91
2022-10-23T16:11:37.287Z,100092.63
2022-10-23T16:12:40.090Z,100099.81
2022-10-23T16:13:42.500Z,100101.53
2022-10-23T16:14:45.065Z,100104.02
2022-10-23T16:15:47.943Z,100103.14
2022-10-23T16:16:50.705Z,100108.34
2022-10-23T16:17:53.459Z,100099.39
2022-10-23T16:19:01.103Z,100099.31
2022-10-23T16:20:04.169Z,100094.02
2022-10-23T16:21:07.642Z,100103.73
2022-10-23T16:22:10.052Z,100106.29
2022-10-23T16:23:12.523Z,100100.16
2022-10-23T16:24:14.811Z,100106.46
2022-10-23T16:25:17.150Z,100111.75
2022-10-23T16:26:20.600Z,100113.56
2022-10-23T16:27:22.913Z,100116.38
2022-10-23T16:28:25.403Z,100118.09
2022-10-23T16:29:27.999Z,100117.92
2022-10-23T16:30:30.948Z,100122.34
2022-10-23T16:31:33.804Z,100111.41
2022-10-23T16:32:36.012Z,100124.48
2022-10-23T16:33:39.027Z,100114.69
2022-10-23T16:34:41.931Z,100090.40
2022-10-23T16:35:44.238Z,100122.88
2022-10-23T16:36:47.479Z,100128.09
2022-10-23T16:37:49.821Z,100117.58
2022-10-23T16:38:52.295Z,100120.23
2022-10-23T16:39:54.424Z,100131.74
2022-10-23T16:40:56.721Z,100127.21
2022-10-23T16:41:58.900Z,100127.72
2022-10-23T16:43:01.322Z,100121.16
2022-10-23T16:44:04.476Z,100128.34
2022-10-23T16:45:08.603Z,100121.33
2022-10-23T16:46:14.281Z,100123.05
2022-10-23T16:47:16.812Z,100128.17
2022-10-23T16:48:19.011Z,100125.36
2022-10-23T16:49:21.440Z,100115.11
2022-10-23T16:50:23.948Z,100120.06
2022-10-23T16:51:26.542Z,100120.15
2022-10-23T16:52:28.758Z,100120.91
2022-10-23T16:53:31.155Z,100114.86
2022-10-23T16:54:33.561Z,100122.71
2022-10-23T16:55:39.513Z,100123.64
2022-10-23T16:56:43.032Z,100116.62
2022-10-23T16:57:45.456Z,100115.45
2022-10-23T16:58:47.705Z,100124.56
2022-10-23T16:59:51.589Z,100120.98
2022-10-23T17:01:09.889Z,100108.85
2022-10-23T17:02:12.585Z,100119.27
2022-10-23T17:03:15.218Z,100124.40
2022-10-23T17:04:17.717Z,100121.67
2022-10-23T17:05:19.964Z,100129.36
2022-10-23T17:06:29.135Z,100123.22
2022-10-23T17:07:32.250Z,100127.47
2022-10-23T17:08:35.462Z,100129.36
2022-10-23T17:09:37.652Z,100132.93
2022-10-23T17:10:39.894Z,100126.71